Norfolk, Virginia
Traffic Map
Current Weather Conditions
Norfolk, Virginia
Overcast
Overcast
70°
Feels Like: 70°
Wind Chill: 70° Ceiling: 1600
Heat Index: 70° Visibility: 10mi
Dew Point: 65° Wind: 14mph
Humidity: 84% Direction: 220° (SW)
Pressure: 30.45in Gusts: 0mph
Raw Report DataKORF 211451Z 22012KT 10SM OVC016 21/18 A3045 RMK AO2 SLP311 T02110183 51003
Traffic Incident Summary
Active as of:
Severity:
Category:
InformationThere was an issue retrieving the traffic information for this location. Please try a different location or try again shortly.
Advertisements